createdAt,value
2022-12-17T00:01:23.833Z,25.37
2022-12-17T00:03:23.987Z,25.37
2022-12-17T00:05:23.821Z,25.39
2022-12-17T00:07:23.818Z,25.42
2022-12-17T00:09:23.863Z,25.49
2022-12-17T00:11:23.795Z,25.58
2022-12-17T00:13:23.897Z,25.65
2022-12-17T00:15:23.851Z,25.75
2022-12-17T00:17:23.806Z,25.60
2022-12-17T00:19:23.872Z,25.64
2022-12-17T00:21:23.768Z,25.64
2022-12-17T00:23:23.854Z,25.75
2022-12-17T00:25:23.871Z,25.65
2022-12-17T00:27:23.744Z,25.76
2022-12-17T00:29:23.784Z,25.63
2022-12-17T00:31:23.915Z,25.65
2022-12-17T00:33:23.899Z,25.65
2022-12-17T00:35:23.872Z,25.77
2022-12-17T00:37:23.819Z,25.64
2022-12-17T00:39:23.857Z,25.75
2022-12-17T00:41:23.819Z,25.64
2022-12-17T00:43:23.914Z,25.61
2022-12-17T00:45:23.910Z,25.71
2022-12-17T00:47:23.807Z,25.65
2022-12-17T00:49:23.893Z,25.65
2022-12-17T00:51:23.885Z,25.75
2022-12-17T00:53:23.768Z,25.65
2022-12-17T00:55:23.902Z,25.65
2022-12-17T00:57:23.838Z,25.64
2022-12-17T00:59:23.820Z,25.75
2022-12-17T01:01:24.020Z,25.65
2022-12-17T01:03:23.880Z,25.63
2022-12-17T01:05:23.901Z,25.74
2022-12-17T01:07:23.873Z,25.65
2022-12-17T01:09:23.907Z,25.61
2022-12-17T01:11:23.887Z,25.65
2022-12-17T01:13:23.915Z,25.61
2022-12-17T01:15:23.926Z,25.71
2022-12-17T01:17:23.909Z,25.61
2022-12-17T01:19:23.946Z,25.65
2022-12-17T01:21:23.896Z,25.65
2022-12-17T01:23:23.895Z,25.63
2022-12-17T01:25:23.911Z,25.72
2022-12-17T01:27:23.810Z,25.65
2022-12-17T01:29:23.899Z,25.65
2022-12-17T01:31:23.958Z,25.65
2022-12-17T01:33:23.966Z,25.65
2022-12-17T01:35:23.937Z,25.64
2022-12-17T01:37:23.884Z,25.71
2022-12-17T01:39:23.925Z,25.64
2022-12-17T01:41:23.863Z,25.60
2022-12-17T01:43:23.786Z,25.75
2022-12-17T01:45:23.964Z,25.63
2022-12-17T01:47:23.917Z,25.65
2022-12-17T01:49:23.926Z,25.76
2022-12-17T01:51:23.840Z,25.64
2022-12-17T01:53:23.849Z,25.63
2022-12-17T01:55:23.935Z,25.64
2022-12-17T01:57:23.996Z,25.61
2022-12-17T01:59:23.957Z,25.58
2022-12-17T02:01:24.078Z,25.64
2022-12-17T02:03:24.023Z,25.70
2022-12-17T02:05:23.944Z,25.65
2022-12-17T02:07:24.033Z,25.65
2022-12-17T02:09:24.009Z,25.64
2022-12-17T02:11:23.965Z,25.75
2022-12-17T02:13:23.960Z,25.75
2022-12-17T02:15:23.929Z,25.75
2022-12-17T02:17:23.909Z,25.60
2022-12-17T02:19:23.982Z,25.56
2022-12-17T02:21:23.983Z,25.61
2022-12-17T02:23:23.925Z,25.60
2022-12-17T02:25:23.941Z,25.65
2022-12-17T02:27:23.907Z,25.58
2022-12-17T02:29:23.960Z,25.60
2022-12-17T02:31:23.983Z,25.60
2022-12-17T02:33:24.016Z,25.61
2022-12-17T02:35:23.946Z,25.63
2022-12-17T02:37:23.984Z,25.71
2022-12-17T02:39:23.921Z,25.71
2022-12-17T02:41:23.986Z,25.74
2022-12-17T02:43:24.008Z,25.79
2022-12-17T02:45:23.972Z,25.80
2022-12-17T02:47:23.905Z,25.72
2022-12-17T02:49:24.038Z,25.72
2022-12-17T02:51:23.994Z,25.72
2022-12-17T02:53:24.014Z,25.72
2022-12-17T02:55:24.002Z,25.75
2022-12-17T02:57:24.042Z,25.73
2022-12-17T02:59:23.921Z,25.78
2022-12-17T03:01:24.182Z,25.75
2022-12-17T03:03:24.181Z,25.64
2022-12-17T03:05:43.428Z,25.74
2022-12-17T03:07:24.017Z,25.78
2022-12-17T03:09:24.026Z,25.80
2022-12-17T03:11:24.041Z,25.65
2022-12-17T03:13:24.022Z,25.72
2022-12-17T03:15:24.016Z,25.65
2022-12-17T03:17:23.998Z,25.65
2022-12-17T03:19:23.958Z,25.63
2022-12-17T03:21:24.024Z,25.70
2022-12-17T03:23:24.043Z,25.44
2022-12-17T03:25:24.051Z,25.60
2022-12-17T03:27:24.020Z,25.71
2022-12-17T03:29:23.962Z,25.71
2022-12-17T03:31:24.124Z,25.63
2022-12-17T03:33:23.952Z,25.65
2022-12-17T03:35:24.031Z,25.61
2022-12-17T03:37:24.094Z,25.62
2022-12-17T03:39:24.086Z,25.65
2022-12-17T03:41:24.105Z,25.75
2022-12-17T03:43:24.127Z,25.61
2022-12-17T03:45:24.100Z,25.65
2022-12-17T03:47:24.065Z,25.65
2022-12-17T03:49:24.017Z,25.77
2022-12-17T03:51:24.155Z,25.79
2022-12-17T03:53:24.107Z,25.82
2022-12-17T03:55:24.090Z,25.75
2022-12-17T03:57:24.064Z,25.84
2022-12-17T03:59:23.997Z,25.75
2022-12-17T04:01:24.210Z,25.80
2022-12-17T04:03:24.106Z,25.75
2022-12-17T04:05:24.010Z,25.80
2022-12-17T04:07:24.084Z,25.77
2022-12-17T04:09:24.051Z,25.75
2022-12-17T04:11:24.097Z,25.80
2022-12-17T04:13:24.063Z,25.65
2022-12-17T04:15:24.062Z,25.61
2022-12-17T04:17:24.036Z,25.75
2022-12-17T04:19:24.078Z,25.65
2022-12-17T04:21:24.052Z,25.77
2022-12-17T04:23:24.029Z,25.78
2022-12-17T04:25:24.128Z,25.47
2022-12-17T04:27:24.100Z,25.76
2022-12-17T04:29:24.100Z,25.77
2022-12-17T04:31:24.232Z,25.78
2022-12-17T04:33:24.092Z,25.81
2022-12-17T04:35:24.099Z,25.81
2022-12-17T04:37:24.151Z,25.58
2022-12-17T04:39:24.021Z,25.80
2022-12-17T04:41:24.086Z,25.85
2022-12-17T04:43:24.158Z,25.80
2022-12-17T04:45:23.988Z,25.83
2022-12-17T04:47:24.121Z,25.80
2022-12-17T04:49:24.150Z,25.89
2022-12-17T04:51:24.150Z,25.81
2022-12-17T04:53:24.116Z,25.78
2022-12-17T04:55:24.132Z,25.79
2022-12-17T04:57:24.052Z,25.79
2022-12-17T04:59:24.056Z,25.80
2022-12-17T05:01:24.238Z,25.74
2022-12-17T05:03:24.108Z,25.81
2022-12-17T05:05:24.152Z,25.78
2022-12-17T05:07:24.095Z,25.80
2022-12-17T05:09:24.136Z,25.72
2022-12-17T05:11:24.142Z,25.78
2022-12-17T05:13:24.175Z,25.81
2022-12-17T05:15:24.143Z,25.77
2022-12-17T05:17:24.184Z,25.77
2022-12-17T05:19:24.136Z,25.77
2022-12-17T05:21:24.472Z,25.77
2022-12-17T05:23:24.155Z,25.65
2022-12-17T05:25:24.145Z,25.75
2022-12-17T05:27:24.189Z,25.75
2022-12-17T05:29:24.128Z,25.75
2022-12-17T05:31:24.213Z,25.74
2022-12-17T05:33:24.247Z,25.61
2022-12-17T05:35:24.210Z,25.63
2022-12-17T05:37:24.103Z,25.75
2022-12-17T05:39:24.160Z,25.65
2022-12-17T05:41:24.106Z,25.78
2022-12-17T05:43:24.118Z,25.73
2022-12-17T05:45:24.198Z,25.65
2022-12-17T05:47:24.150Z,25.65
2022-12-17T05:49:24.188Z,25.64
2022-12-17T05:51:24.122Z,25.60
2022-12-17T05:53:24.184Z,25.63
2022-12-17T05:55:24.136Z,25.55
2022-12-17T05:57:24.193Z,25.61
2022-12-17T05:59:24.230Z,25.54
2022-12-17T06:01:24.173Z,25.58
2022-12-17T06:03:24.309Z,25.65
2022-12-17T06:05:24.141Z,25.56
2022-12-17T06:07:24.169Z,25.54
2022-12-17T06:09:24.103Z,25.53
2022-12-17T06:11:24.208Z,25.52
2022-12-17T06:13:24.263Z,25.52
2022-12-17T06:15:24.201Z,25.55
2022-12-17T06:17:24.216Z,25.54
2022-12-17T06:19:24.115Z,25.54
2022-12-17T06:21:24.219Z,25.64
2022-12-17T06:23:24.173Z,25.53
2022-12-17T06:25:24.206Z,25.65
2022-12-17T06:27:24.218Z,25.58
2022-12-17T06:29:24.156Z,25.61
2022-12-17T06:31:24.271Z,25.62
2022-12-17T06:33:24.259Z,25.65
2022-12-17T06:35:24.268Z,25.63
2022-12-17T06:37:24.167Z,25.07
2022-12-17T06:39:24.208Z,24.95
2022-12-17T06:41:24.234Z,24.87
2022-12-17T06:43:24.220Z,24.80
2022-12-17T06:45:24.231Z,24.66
2022-12-17T06:47:24.194Z,24.76
2022-12-17T06:49:24.209Z,24.58
2022-12-17T06:51:24.241Z,24.52
2022-12-17T06:53:24.254Z,24.47
2022-12-17T06:55:24.198Z,24.49
2022-12-17T06:57:24.263Z,24.44
2022-12-17T06:59:24.166Z,24.38
2022-12-17T07:01:24.395Z,24.38
2022-12-17T07:03:24.242Z,24.23
2022-12-17T07:05:24.263Z,24.25
2022-12-17T07:07:24.209Z,24.20
2022-12-17T07:09:24.254Z,24.11
2022-12-17T07:11:24.379Z,24.15
2022-12-17T07:13:24.304Z,24.04
2022-12-17T07:15:24.302Z,24.05
2022-12-17T07:17:24.294Z,24.10
2022-12-17T07:19:27.309Z,24.10
2022-12-17T07:21:24.299Z,23.97
2022-12-17T07:23:24.287Z,24.00
2022-12-17T07:25:24.194Z,23.98
2022-12-17T07:27:24.250Z,24.09
2022-12-17T07:29:24.277Z,24.02
2022-12-17T07:31:24.331Z,24.09
2022-12-17T07:33:24.227Z,24.07
2022-12-17T07:35:24.295Z,24.05
2022-12-17T07:37:24.211Z,24.07
2022-12-17T07:39:24.292Z,24.12
2022-12-17T07:41:24.306Z,24.10
2022-12-17T07:43:24.276Z,24.10
2022-12-17T07:45:24.414Z,24.16
2022-12-17T07:47:24.237Z,24.28
2022-12-17T07:49:25.992Z,24.30
2022-12-17T07:51:24.331Z,24.38
2022-12-17T07:53:24.503Z,24.16
2022-12-17T07:55:24.241Z,24.08
2022-12-17T07:57:24.475Z,23.96
2022-12-17T07:59:24.327Z,23.87
2022-12-17T08:01:24.391Z,23.84
2022-12-17T08:03:24.356Z,23.81
2022-12-17T08:05:24.309Z,23.77
2022-12-17T08:07:24.319Z,23.77
2022-12-17T08:09:24.269Z,23.68
2022-12-17T08:11:24.343Z,23.65
2022-12-17T08:13:24.223Z,23.63
2022-12-17T08:15:24.350Z,23.58
2022-12-17T08:17:24.275Z,23.59
2022-12-17T08:19:24.284Z,23.59
2022-12-17T08:21:24.376Z,23.65
2022-12-17T08:23:24.329Z,23.81
2022-12-17T08:25:24.312Z,23.90
2022-12-17T08:27:24.355Z,24.14
2022-12-17T08:29:24.371Z,24.38
2022-12-17T08:31:24.282Z,24.83
2022-12-17T08:33:24.332Z,26.11
2022-12-17T08:35:24.297Z,25.26
2022-12-17T08:37:24.401Z,25.75
2022-12-17T08:39:24.394Z,25.74
2022-12-17T08:41:24.388Z,25.63
2022-12-17T08:43:24.301Z,25.80
2022-12-17T08:45:24.256Z,25.65
2022-12-17T08:47:24.336Z,25.75
2022-12-17T08:49:24.358Z,25.80
2022-12-17T08:51:24.480Z,25.65
2022-12-17T08:53:24.381Z,25.53
2022-12-17T08:55:24.392Z,25.61
2022-12-17T08:57:31.485Z,25.61
2022-12-17T08:59:24.441Z,25.61
2022-12-17T09:01:24.533Z,25.60
2022-12-17T09:03:24.416Z,25.63
2022-12-17T09:05:24.352Z,25.57
2022-12-17T09:07:24.344Z,25.60
2022-12-17T09:09:24.332Z,25.46
2022-12-17T09:11:24.380Z,25.33
2022-12-17T09:13:24.361Z,25.32
2022-12-17T09:15:24.295Z,25.80
2022-12-17T09:17:24.406Z,25.52
2022-12-17T09:19:24.397Z,25.47
2022-12-17T09:21:24.333Z,25.47
2022-12-17T09:23:24.440Z,25.35
2022-12-17T09:25:24.401Z,25.46
2022-12-17T09:27:24.444Z,25.44
2022-12-17T09:29:24.433Z,25.76
2022-12-17T09:31:24.370Z,25.52
2022-12-17T09:33:24.394Z,25.83
2022-12-17T09:35:24.414Z,25.80
2022-12-17T09:37:24.399Z,25.52
2022-12-17T09:39:24.332Z,25.88
2022-12-17T09:41:24.532Z,25.79
2022-12-17T09:43:24.380Z,25.32
2022-12-17T09:45:24.459Z,25.75
2022-12-17T09:47:24.414Z,25.52
2022-12-17T09:49:24.422Z,25.45
2022-12-17T09:51:24.397Z,25.36
2022-12-17T09:53:24.434Z,25.32
2022-12-17T09:55:24.353Z,25.36
2022-12-17T09:57:24.505Z,25.40
2022-12-17T09:59:24.498Z,25.65
2022-12-17T10:01:24.490Z,25.42
2022-12-17T10:03:24.504Z,25.37
2022-12-17T10:05:24.357Z,25.33
2022-12-17T10:07:24.487Z,25.75
2022-12-17T10:09:24.420Z,25.74
2022-12-17T10:11:24.466Z,25.74
2022-12-17T10:13:24.488Z,25.65
2022-12-17T10:15:24.485Z,25.61
2022-12-17T10:17:24.390Z,25.64
2022-12-17T10:19:24.434Z,25.64
2022-12-17T10:21:24.369Z,25.60
2022-12-17T10:23:24.469Z,25.58
2022-12-17T10:25:24.514Z,25.56
2022-12-17T10:27:24.490Z,25.56
2022-12-17T10:29:24.449Z,25.83
2022-12-17T10:31:24.568Z,25.41
2022-12-17T10:33:24.419Z,25.60
2022-12-17T10:35:24.479Z,25.74
2022-12-17T10:37:24.619Z,25.82
2022-12-17T10:39:24.374Z,27.34
2022-12-17T10:41:24.454Z,26.24
2022-12-17T10:43:24.468Z,27.22
2022-12-17T10:45:24.467Z,27.28
2022-12-17T10:47:24.467Z,25.42
2022-12-17T10:49:24.473Z,25.47
2022-12-17T10:51:24.434Z,25.29
2022-12-17T10:53:24.451Z,25.33
2022-12-17T10:55:24.517Z,25.34
2022-12-17T10:57:24.470Z,25.42
2022-12-17T10:59:24.475Z,25.58
2022-12-17T11:01:24.635Z,25.37
2022-12-17T11:03:24.555Z,25.83
2022-12-17T11:05:24.504Z,25.55
2022-12-17T11:07:24.535Z,25.46
2022-12-17T11:09:24.421Z,25.43
2022-12-17T11:11:24.430Z,25.38
2022-12-17T11:13:24.527Z,27.22
2022-12-17T11:15:24.488Z,27.31
2022-12-17T11:17:24.493Z,25.29
2022-12-17T11:19:24.510Z,25.38
2022-12-17T11:21:24.885Z,27.31
2022-12-17T11:23:24.569Z,25.33
2022-12-17T11:25:24.526Z,25.36
2022-12-17T11:27:25.100Z,25.32
2022-12-17T11:29:24.483Z,25.47
2022-12-17T11:31:24.501Z,25.58
2022-12-17T11:33:24.519Z,25.83
2022-12-17T11:35:24.542Z,25.75
2022-12-17T11:37:24.481Z,25.35
2022-12-17T11:39:24.509Z,25.78
2022-12-17T11:41:24.622Z,27.33
2022-12-17T11:43:24.557Z,27.34
2022-12-17T11:45:24.586Z,25.26
2022-12-17T11:47:24.545Z,25.40
2022-12-17T11:49:24.483Z,25.65
2022-12-17T11:51:24.534Z,27.36
2022-12-17T11:53:27.978Z,25.35
2022-12-17T11:55:24.562Z,25.33
2022-12-17T11:57:24.630Z,25.35
2022-12-17T11:59:24.602Z,25.43
2022-12-17T12:01:24.472Z,25.26
2022-12-17T12:03:24.692Z,25.32
2022-12-17T12:05:24.565Z,25.49
2022-12-17T12:07:24.535Z,25.53
2022-12-17T12:09:24.538Z,25.44
2022-12-17T12:11:29.738Z,25.52
2022-12-17T12:13:24.580Z,25.40
2022-12-17T12:15:24.553Z,26.52
2022-12-17T12:17:24.590Z,27.37
2022-12-17T12:19:24.544Z,25.33
2022-12-17T12:21:24.539Z,25.38
2022-12-17T12:23:24.588Z,25.86
2022-12-17T12:25:24.702Z,25.51
2022-12-17T12:27:24.604Z,25.61
2022-12-17T12:29:24.617Z,25.28
2022-12-17T12:31:24.530Z,25.33
2022-12-17T12:33:24.573Z,25.50
2022-12-17T12:35:24.736Z,25.33
2022-12-17T12:37:24.505Z,25.75
2022-12-17T12:39:24.661Z,25.52
2022-12-17T12:41:24.530Z,25.47
2022-12-17T12:43:24.623Z,25.79
2022-12-17T12:45:24.522Z,25.43
2022-12-17T12:47:24.546Z,26.60
2022-12-17T12:49:24.598Z,27.35
2022-12-17T12:51:28.184Z,25.31
2022-12-17T12:53:24.537Z,25.29
2022-12-17T12:55:24.588Z,25.38
2022-12-17T12:57:28.319Z,25.31
2022-12-17T12:59:24.672Z,25.32
2022-12-17T13:01:24.643Z,25.41
2022-12-17T13:03:29.900Z,25.58
2022-12-17T13:05:24.645Z,25.79
2022-12-17T13:07:24.628Z,25.71
2022-12-17T13:09:27.968Z,25.72
2022-12-17T13:11:24.603Z,25.57
2022-12-17T13:13:24.642Z,25.61
2022-12-17T13:15:27.724Z,25.65
2022-12-17T13:17:24.610Z,25.55
2022-12-17T13:19:24.613Z,25.32
2022-12-17T13:21:24.633Z,27.36
2022-12-17T13:23:24.587Z,25.29
2022-12-17T13:25:24.577Z,25.39
2022-12-17T13:27:24.596Z,27.35
2022-12-17T13:29:24.697Z,25.75
2022-12-17T13:31:24.728Z,25.80
2022-12-17T13:33:24.597Z,25.80
2022-12-17T13:35:24.653Z,25.75
2022-12-17T13:37:24.751Z,25.78
2022-12-17T13:39:24.694Z,25.75
2022-12-17T13:41:24.565Z,25.77
2022-12-17T13:43:24.606Z,25.80
2022-12-17T13:45:24.536Z,25.65
2022-12-17T13:47:24.649Z,25.32
2022-12-17T13:49:24.681Z,25.37
2022-12-17T13:51:24.565Z,25.65
2022-12-17T13:53:24.605Z,25.78
2022-12-17T13:55:24.577Z,25.78
2022-12-17T13:57:24.675Z,25.65
2022-12-17T13:59:24.617Z,25.37
2022-12-17T14:01:24.776Z,25.40
2022-12-17T14:03:37.403Z,26.78
2022-12-17T14:05:24.708Z,25.84
2022-12-17T14:07:24.574Z,25.09
2022-12-17T14:09:24.560Z,24.97
2022-12-17T14:11:24.677Z,24.90
2022-12-17T14:13:24.701Z,24.92
2022-12-17T14:15:24.677Z,24.87
2022-12-17T14:17:24.669Z,24.78
2022-12-17T14:19:24.603Z,24.69
2022-12-17T14:21:24.589Z,24.68
2022-12-17T14:23:24.625Z,24.66
2022-12-17T14:25:24.704Z,24.51
2022-12-17T14:27:24.725Z,24.57
2022-12-17T14:29:24.706Z,24.44
2022-12-17T14:31:27.638Z,24.38
2022-12-17T14:33:24.697Z,24.27
2022-12-17T14:35:24.862Z,24.30
2022-12-17T14:37:24.772Z,24.12
2022-12-17T14:39:24.787Z,24.07
2022-12-17T14:41:24.698Z,24.04
2022-12-17T14:43:24.702Z,23.98
2022-12-17T14:45:24.683Z,23.86
2022-12-17T14:47:24.758Z,23.81
2022-12-17T14:49:24.689Z,23.76
2022-12-17T14:51:24.612Z,23.73
2022-12-17T14:53:24.729Z,23.58
2022-12-17T14:55:24.741Z,23.54
2022-12-17T14:57:24.780Z,23.47
2022-12-17T14:59:24.618Z,23.44
2022-12-17T15:01:24.799Z,23.37
2022-12-17T15:03:24.913Z,23.36
2022-12-17T15:05:24.717Z,23.34
2022-12-17T15:07:24.634Z,23.26
2022-12-17T15:09:24.676Z,23.29
2022-12-17T15:11:24.783Z,23.29
2022-12-17T15:13:24.831Z,23.30
2022-12-17T15:15:24.726Z,23.31
2022-12-17T15:17:24.760Z,23.39
2022-12-17T15:19:24.664Z,23.33
2022-12-17T15:21:24.657Z,23.29
2022-12-17T15:23:24.773Z,23.29
2022-12-17T15:25:24.698Z,23.39
2022-12-17T15:27:24.692Z,23.30
2022-12-17T15:29:24.756Z,23.34
2022-12-17T15:31:26.076Z,23.25
2022-12-17T15:33:24.800Z,23.70
2022-12-17T15:35:24.826Z,23.30
2022-12-17T15:37:26.003Z,23.30
2022-12-17T15:39:24.774Z,23.25
2022-12-17T15:41:24.702Z,23.31
2022-12-17T15:43:24.823Z,23.27
2022-12-17T15:45:24.773Z,23.30
2022-12-17T15:47:24.844Z,23.30
2022-12-17T15:49:24.797Z,23.20
2022-12-17T15:51:24.743Z,23.36
2022-12-17T15:53:24.703Z,23.34
2022-12-17T15:55:24.818Z,23.33
2022-12-17T15:57:24.788Z,23.39
2022-12-17T15:59:24.770Z,23.39
2022-12-17T16:01:25.018Z,23.34
2022-12-17T16:03:24.866Z,23.26
2022-12-17T16:05:24.723Z,23.25
2022-12-17T16:07:24.837Z,23.24
2022-12-17T16:09:24.809Z,23.25
2022-12-17T16:11:24.883Z,23.28
2022-12-17T16:13:24.801Z,23.26
2022-12-17T16:15:24.836Z,23.22
2022-12-17T16:17:24.792Z,23.25
2022-12-17T16:19:24.826Z,23.23
2022-12-17T16:21:24.843Z,23.25
2022-12-17T16:23:24.826Z,23.26
2022-12-17T16:25:24.813Z,23.20
2022-12-17T16:27:24.711Z,23.25
2022-12-17T16:29:24.817Z,23.29
2022-12-17T16:31:24.923Z,23.25
2022-12-17T16:33:24.785Z,23.22
2022-12-17T16:35:24.836Z,23.25
2022-12-17T16:37:24.837Z,23.25
2022-12-17T16:39:24.829Z,23.11
2022-12-17T16:41:24.875Z,23.09
2022-12-17T16:43:24.801Z,22.94
2022-12-17T16:45:24.774Z,22.96
2022-12-17T16:47:24.697Z,22.96
2022-12-17T16:49:24.841Z,23.06
2022-12-17T16:51:28.600Z,23.19
2022-12-17T16:53:24.841Z,23.17
2022-12-17T16:55:24.860Z,23.12
2022-12-17T16:57:24.907Z,23.24
2022-12-17T16:59:24.842Z,23.18
2022-12-17T17:01:25.031Z,23.26
2022-12-17T17:03:25.003Z,23.25
2022-12-17T17:05:24.856Z,23.27
2022-12-17T17:07:24.786Z,23.30
2022-12-17T17:09:24.839Z,23.27
2022-12-17T17:11:24.848Z,23.12
2022-12-17T17:13:24.837Z,23.23
2022-12-17T17:15:24.829Z,23.20
2022-12-17T17:17:53.921Z,23.18
2022-12-17T17:19:24.885Z,23.09
2022-12-17T17:21:24.904Z,23.22
2022-12-17T17:23:24.957Z,23.20
2022-12-17T17:25:31.089Z,23.24
2022-12-17T17:27:24.838Z,23.27
2022-12-17T17:29:24.890Z,23.31
2022-12-17T17:31:46.487Z,23.30
2022-12-17T17:33:24.912Z,23.37
2022-12-17T17:35:24.838Z,23.41
2022-12-17T17:37:24.927Z,23.39
2022-12-17T17:39:24.902Z,23.44
2022-12-17T17:41:24.799Z,23.46
2022-12-17T17:43:24.843Z,23.43
2022-12-17T17:45:24.941Z,23.44
2022-12-17T17:47:24.954Z,23.45
2022-12-17T17:49:24.950Z,23.45
2022-12-17T17:51:51.908Z,23.47
2022-12-17T17:53:24.934Z,23.43
2022-12-17T17:55:24.911Z,23.50
2022-12-17T17:57:24.884Z,23.42
2022-12-17T17:59:32.502Z,23.43
2022-12-17T18:01:25.026Z,23.43
2022-12-17T18:03:24.971Z,23.42
2022-12-17T18:05:24.952Z,23.43
2022-12-17T18:07:26.305Z,23.47
2022-12-17T18:09:24.993Z,23.42
2022-12-17T18:11:24.874Z,23.42
2022-12-17T18:13:24.962Z,23.39
2022-12-17T18:15:24.897Z,23.37
2022-12-17T18:17:24.975Z,23.40
2022-12-17T18:19:25.030Z,23.38
2022-12-17T18:21:24.927Z,23.33
2022-12-17T18:23:24.895Z,23.35
2022-12-17T18:25:25.020Z,23.32
2022-12-17T18:27:24.921Z,23.34
2022-12-17T18:29:24.956Z,23.27
2022-12-17T18:31:24.941Z,23.33
2022-12-17T18:33:24.861Z,23.27
2022-12-17T18:35:24.953Z,23.27
2022-12-17T18:37:24.970Z,23.27
2022-12-17T18:39:25.058Z,23.36
2022-12-17T18:41:24.981Z,23.31
2022-12-17T18:43:24.906Z,23.26
2022-12-17T18:45:24.994Z,23.34
2022-12-17T18:47:25.049Z,23.23
2022-12-17T18:49:25.071Z,23.27
2022-12-17T18:51:25.027Z,23.25
2022-12-17T18:53:24.962Z,23.25
2022-12-17T18:55:24.862Z,23.25
2022-12-17T18:57:24.872Z,23.22
2022-12-17T18:59:28.893Z,23.34
2022-12-17T19:01:25.129Z,23.25
2022-12-17T19:03:25.017Z,23.17
2022-12-17T19:05:24.970Z,23.18
2022-12-17T19:07:24.955Z,23.16
2022-12-17T19:09:24.963Z,23.13
2022-12-17T19:11:24.960Z,23.20
2022-12-17T19:13:24.905Z,23.11
2022-12-17T19:15:24.904Z,23.16
2022-12-17T19:17:25.037Z,23.15
2022-12-17T19:19:24.965Z,23.17
2022-12-17T19:21:25.041Z,23.14
2022-12-17T19:23:30.085Z,23.27
2022-12-17T19:25:24.967Z,23.09
2022-12-17T19:27:25.011Z,23.16
2022-12-17T19:29:25.160Z,23.18
2022-12-17T19:31:25.007Z,23.12
2022-12-17T19:33:25.034Z,23.16
2022-12-17T19:35:24.941Z,23.09
2022-12-17T19:37:25.039Z,23.10
2022-12-17T19:39:24.933Z,23.01
2022-12-17T19:41:25.020Z,23.09
2022-12-17T19:43:24.987Z,22.96
2022-12-17T19:45:25.102Z,22.99
2022-12-17T19:47:25.038Z,22.96
2022-12-17T19:49:24.948Z,23.31
2022-12-17T19:51:24.985Z,23.25
2022-12-17T19:53:25.036Z,23.20
2022-12-17T19:55:24.889Z,23.04
2022-12-17T19:57:24.996Z,23.15
2022-12-17T19:59:25.026Z,23.20
2022-12-17T20:01:25.199Z,23.25
2022-12-17T20:03:25.038Z,23.16
2022-12-17T20:05:25.065Z,23.15
2022-12-17T20:07:25.081Z,23.08
2022-12-17T20:09:25.091Z,23.03
2022-12-17T20:11:25.063Z,23.15
2022-12-17T20:13:25.074Z,23.18
2022-12-17T20:15:24.990Z,23.01
2022-12-17T20:17:25.027Z,23.16
2022-12-17T20:19:24.972Z,23.17
2022-12-17T20:21:25.099Z,23.25
2022-12-17T20:23:25.078Z,23.30
2022-12-17T20:25:24.953Z,23.34
2022-12-17T20:27:25.024Z,23.26
2022-12-17T20:29:25.070Z,23.37
2022-12-17T20:31:25.149Z,23.39
2022-12-17T20:33:25.099Z,23.42
2022-12-17T20:35:25.011Z,23.39
2022-12-17T20:37:25.059Z,23.37
2022-12-17T20:39:27.841Z,23.50
2022-12-17T20:41:25.119Z,23.43
2022-12-17T20:43:25.104Z,23.49
2022-12-17T20:45:25.090Z,23.39
2022-12-17T20:47:25.017Z,23.49
2022-12-17T20:49:25.078Z,23.39
2022-12-17T20:51:25.108Z,23.40
2022-12-17T20:53:25.125Z,23.40
2022-12-17T20:55:30.862Z,23.39
2022-12-17T20:57:25.043Z,23.37
2022-12-17T20:59:25.203Z,23.41
2022-12-17T21:01:25.131Z,23.34
2022-12-17T21:03:25.196Z,23.45
2022-12-17T21:05:25.150Z,23.47
2022-12-17T21:07:25.106Z,23.39
2022-12-17T21:09:25.185Z,23.42
2022-12-17T21:11:25.026Z,23.38
2022-12-17T21:13:25.127Z,23.34
2022-12-17T21:15:25.097Z,23.34
2022-12-17T21:17:25.110Z,23.34
2022-12-17T21:19:25.014Z,23.31
2022-12-17T21:21:25.134Z,23.41
2022-12-17T21:23:25.104Z,23.36
2022-12-17T21:25:25.128Z,23.39
2022-12-17T21:27:25.127Z,23.34
2022-12-17T21:29:25.068Z,23.39
2022-12-17T21:31:25.230Z,23.29
2022-12-17T21:33:25.164Z,23.36
2022-12-17T21:35:25.202Z,23.40
2022-12-17T21:37:25.201Z,23.33
2022-12-17T21:39:25.158Z,23.27
2022-12-17T21:41:25.191Z,23.31
2022-12-17T21:43:25.153Z,23.33
2022-12-17T21:45:25.161Z,23.27
2022-12-17T21:47:25.185Z,23.27
2022-12-17T21:49:25.095Z,23.31
2022-12-17T21:51:25.150Z,23.16
2022-12-17T21:53:25.145Z,23.17
2022-12-17T21:55:25.059Z,23.09
2022-12-17T21:57:25.069Z,23.17
2022-12-17T21:59:25.112Z,23.16
2022-12-17T22:01:25.427Z,23.25
2022-12-17T22:03:25.186Z,23.25
2022-12-17T22:05:25.181Z,23.08
2022-12-17T22:07:31.697Z,23.10
2022-12-17T22:09:32.422Z,23.11
2022-12-17T22:11:25.425Z,23.10
2022-12-17T22:13:25.222Z,23.11
2022-12-17T22:15:25.764Z,23.12
2022-12-17T22:17:25.237Z,23.08
2022-12-17T22:19:25.234Z,23.16
2022-12-17T22:21:25.192Z,23.11
2022-12-17T22:23:25.179Z,23.41
2022-12-17T22:25:25.228Z,23.45
2022-12-17T22:27:25.196Z,23.40
2022-12-17T22:29:25.130Z,23.39
2022-12-17T22:31:25.148Z,23.43
2022-12-17T22:33:38.958Z,23.34
2022-12-17T22:36:26.867Z,23.34
2022-12-17T22:40:03.251Z,23.38
2022-12-17T22:43:09.090Z,23.36
2022-12-17T22:44:34.290Z,23.31
2022-12-17T22:44:44.910Z,23.20
2022-12-17T22:45:25.809Z,23.05
2022-12-17T22:47:25.193Z,22.95
2022-12-17T22:49:25.168Z,23.11
2022-12-17T22:51:31.633Z,23.29
2022-12-17T22:53:25.246Z,23.25
2022-12-17T22:55:25.213Z,23.02
2022-12-17T22:57:37.456Z,22.91
2022-12-17T22:59:25.227Z,22.79
2022-12-17T23:01:25.234Z,22.81
2022-12-17T23:03:25.939Z,22.64
2022-12-17T23:05:25.230Z,23.25
2022-12-17T23:07:31.424Z,23.31
2022-12-17T23:09:25.264Z,23.19
2022-12-17T23:11:25.273Z,23.13
2022-12-17T23:13:25.122Z,22.98
2022-12-17T23:15:25.166Z,23.06
2022-12-17T23:17:25.284Z,23.33
2022-12-17T23:19:25.186Z,23.22
2022-12-17T23:21:25.241Z,23.27
2022-12-17T23:23:25.249Z,23.09
2022-12-17T23:25:25.299Z,23.30
2022-12-17T23:27:25.232Z,23.25
2022-12-17T23:29:25.243Z,23.22
2022-12-17T23:31:25.309Z,23.26
2022-12-17T23:33:25.248Z,23.26
2022-12-17T23:35:25.217Z,23.16
2022-12-17T23:37:25.185Z,23.20
2022-12-17T23:39:25.310Z,23.15
2022-12-17T23:41:25.118Z,22.88
2022-12-17T23:43:25.250Z,22.81
2022-12-17T23:45:25.278Z,22.81
2022-12-17T23:47:25.323Z,22.87
2022-12-17T23:49:25.237Z,22.96
2022-12-17T23:51:25.328Z,22.60
2022-12-17T23:53:25.244Z,22.44
2022-12-17T23:55:25.346Z,22.42
2022-12-17T23:57:25.248Z,23.04
2022-12-17T23:59:25.283Z,23.10
